createdAt,value
2024-02-20T00:02:03.217Z,7.05
2024-02-20T00:04:30.309Z,8.48
2024-02-20T00:06:57.337Z,7.72
2024-02-20T00:09:24.083Z,7.80
2024-02-20T00:11:50.836Z,7.28
2024-02-20T00:14:17.637Z,7.70
2024-02-20T00:16:44.445Z,6.82
2024-02-20T00:19:11.897Z,7.25
2024-02-20T00:21:41.499Z,8.18
2024-02-20T00:24:08.411Z,7.28
2024-02-20T00:26:35.162Z,6.93
2024-02-20T00:29:02.019Z,7.25
2024-02-20T00:31:30.182Z,9.25
2024-02-20T00:33:57.424Z,8.27
2024-02-20T00:36:24.697Z,8.00
2024-02-20T00:38:51.481Z,8.25
2024-02-20T00:41:19.455Z,8.18
2024-02-20T00:43:46.299Z,8.27
2024-02-20T00:46:23.771Z,8.38
2024-02-20T00:48:52.131Z,8.93
2024-02-20T00:51:20.947Z,10.13
2024-02-20T00:53:48.332Z,8.82
2024-02-20T00:56:15.593Z,8.02
2024-02-20T00:58:45.839Z,8.10
2024-02-20T01:01:14.008Z,8.75
2024-02-20T01:03:43.841Z,9.32
2024-02-20T01:06:11.416Z,7.95
2024-02-20T01:08:40.137Z,7.63
2024-02-20T01:11:07.489Z,8.48
2024-02-20T01:13:34.917Z,8.38
2024-02-20T01:16:02.008Z,7.68
2024-02-20T01:18:28.979Z,7.57
2024-02-20T01:20:55.847Z,7.38
2024-02-20T01:23:22.632Z,7.32
2024-02-20T01:25:49.853Z,9.48
2024-02-20T01:28:16.731Z,8.18
2024-02-20T01:30:44.723Z,8.60
2024-02-20T01:33:11.853Z,8.35
2024-02-20T01:35:39.778Z,7.90
2024-02-20T01:38:06.703Z,8.77
2024-02-20T01:40:33.632Z,8.30
2024-02-20T01:43:01.980Z,8.15
2024-02-20T01:45:30.518Z,7.95
2024-02-20T01:47:59.531Z,7.50
2024-02-20T01:50:26.811Z,8.82
2024-02-20T01:52:54.135Z,8.07
2024-02-20T01:55:22.124Z,7.40
2024-02-20T01:57:49.985Z,7.43
2024-02-20T02:00:18.893Z,6.70
2024-02-20T02:02:46.525Z,7.45
2024-02-20T02:05:14.008Z,7.70
2024-02-20T02:07:41.148Z,7.53
2024-02-20T02:10:08.822Z,7.40
2024-02-20T02:12:35.600Z,7.63
2024-02-20T02:15:02.466Z,8.57
2024-02-20T02:17:29.281Z,10.63
2024-02-20T02:19:56.058Z,7.97
2024-02-20T02:22:23.101Z,7.30
2024-02-20T02:24:49.941Z,8.75
2024-02-20T02:27:17.107Z,7.65
2024-02-20T02:29:43.904Z,6.75
2024-02-20T02:32:10.824Z,7.95
2024-02-20T02:34:37.643Z,8.27
2024-02-20T02:37:04.578Z,7.93
2024-02-20T02:39:31.296Z,8.02
2024-02-20T02:41:58.132Z,6.75
2024-02-20T02:44:24.987Z,7.60
2024-02-20T02:46:51.867Z,6.80
2024-02-20T02:49:18.772Z,7.65
2024-02-20T02:51:45.598Z,7.65
2024-02-20T02:54:12.382Z,7.72
2024-02-20T02:56:39.383Z,6.57
2024-02-20T02:59:06.263Z,7.90
2024-02-20T03:01:33.200Z,6.97
2024-02-20T03:04:01.162Z,6.20
2024-02-20T03:06:28.205Z,7.50
2024-02-20T03:08:54.951Z,7.97
2024-02-20T03:11:21.951Z,6.28
2024-02-20T03:13:48.883Z,7.05
2024-02-20T03:16:16.629Z,7.95
2024-02-20T03:18:44.191Z,8.07
2024-02-20T03:21:11.027Z,7.25
2024-02-20T03:23:37.821Z,7.25
2024-02-20T03:26:05.347Z,5.95
2024-02-20T03:28:32.558Z,6.32
2024-02-20T03:30:59.891Z,6.43
2024-02-20T03:33:30.233Z,7.88
2024-02-20T03:35:58.670Z,6.78
2024-02-20T03:38:25.936Z,6.72
2024-02-20T03:40:52.864Z,8.10
2024-02-20T03:43:19.730Z,8.07
2024-02-20T03:45:46.463Z,7.28
2024-02-20T03:48:13.481Z,5.82
2024-02-20T03:50:40.528Z,7.28
2024-02-20T03:53:08.269Z,6.75
2024-02-20T03:55:35.494Z,6.10
2024-02-20T03:58:02.640Z,6.40
2024-02-20T04:00:29.746Z,8.10
2024-02-20T04:02:57.863Z,5.57
2024-02-20T04:05:24.937Z,6.35
2024-02-20T04:07:51.748Z,7.03
2024-02-20T04:10:19.176Z,5.90
2024-02-20T04:12:46.539Z,5.60
2024-02-20T04:15:15.227Z,7.95
2024-02-20T04:17:42.491Z,5.53
2024-02-20T04:20:11.388Z,4.88
2024-02-20T04:22:39.129Z,6.32
2024-02-20T04:25:07.453Z,5.25
2024-02-20T04:27:34.976Z,7.28
2024-02-20T04:30:01.781Z,6.82
2024-02-20T04:32:28.592Z,5.18
2024-02-20T04:34:55.520Z,7.00
2024-02-20T04:37:22.452Z,5.80
2024-02-20T04:39:49.194Z,6.50
2024-02-20T04:42:15.977Z,6.18
2024-02-20T04:44:42.793Z,6.72
2024-02-20T04:47:09.635Z,5.65
2024-02-20T04:49:36.486Z,7.47
2024-02-20T04:52:03.444Z,6.53
2024-02-20T04:54:30.235Z,5.50
2024-02-20T04:56:56.910Z,8.20
2024-02-20T04:59:24.245Z,6.20
2024-02-20T05:01:51.957Z,6.22
2024-02-20T05:04:19.330Z,6.70
2024-02-20T05:06:46.564Z,6.07
2024-02-20T05:09:15.071Z,6.00
2024-02-20T05:11:42.640Z,5.32
2024-02-20T05:14:09.466Z,6.22
2024-02-20T05:16:36.339Z,7.45
2024-02-20T05:19:03.287Z,5.93
2024-02-20T05:21:30.198Z,5.10
2024-02-20T05:23:56.932Z,6.15
2024-02-20T05:26:23.844Z,5.72
2024-02-20T05:28:50.574Z,5.68
2024-02-20T05:31:31.386Z,5.65
2024-02-20T05:34:00.733Z,7.90
2024-02-20T05:36:30.899Z,5.80
2024-02-20T05:39:02.694Z,6.40
2024-02-20T05:41:30.693Z,6.22
2024-02-20T05:43:58.788Z,6.10
2024-02-20T05:46:29.934Z,6.60
2024-02-20T05:48:57.231Z,4.97
2024-02-20T05:51:25.105Z,5.72
2024-02-20T05:53:52.679Z,5.78
2024-02-20T05:56:20.568Z,5.05
2024-02-20T05:58:47.315Z,5.25
2024-02-20T06:01:16.108Z,6.43
2024-02-20T06:03:44.453Z,6.20
2024-02-20T06:06:12.517Z,5.50
2024-02-20T06:08:46.143Z,6.43
2024-02-20T06:11:18.958Z,5.22
2024-02-20T06:13:46.387Z,5.28
2024-02-20T06:16:13.322Z,5.30
2024-02-20T06:18:40.304Z,5.18
2024-02-20T06:21:09.771Z,6.97
2024-02-20T06:23:40.633Z,5.47
2024-02-20T06:26:12.420Z,5.75
2024-02-20T06:28:41.484Z,6.15
2024-02-20T06:31:09.167Z,5.97
2024-02-20T06:33:36.375Z,5.43
2024-02-20T06:36:04.233Z,7.80
2024-02-20T06:38:34.254Z,5.95
2024-02-20T06:41:01.306Z,6.82
2024-02-20T06:43:28.787Z,6.82
2024-02-20T06:45:55.924Z,5.47
2024-02-20T06:48:23.540Z,5.75
2024-02-20T06:50:50.467Z,5.75
2024-02-20T06:53:17.246Z,4.97
2024-02-20T06:55:44.324Z,6.80
2024-02-20T06:58:11.823Z,5.43
2024-02-20T07:00:39.149Z,6.00
2024-02-20T07:03:07.482Z,5.13
2024-02-20T07:05:34.837Z,7.07
2024-02-20T07:08:01.785Z,5.97
2024-02-20T07:10:28.676Z,5.25
2024-02-20T07:12:57.797Z,6.07
2024-02-20T07:15:24.701Z,7.45
2024-02-20T07:17:51.529Z,6.85
2024-02-20T07:20:19.169Z,7.38
2024-02-20T07:22:49.935Z,6.03
2024-02-20T07:25:20.277Z,6.68
2024-02-20T07:27:47.249Z,6.05
2024-02-20T07:30:15.217Z,6.07
2024-02-20T07:32:43.294Z,6.93
2024-02-20T07:35:11.454Z,6.55
2024-02-20T07:37:41.999Z,8.13
2024-02-20T07:40:13.246Z,8.80
2024-02-20T07:42:40.826Z,7.55
2024-02-20T07:45:09.074Z,7.05
2024-02-20T07:47:36.877Z,7.05
2024-02-20T07:50:07.706Z,8.23
2024-02-20T07:52:35.065Z,6.93
2024-02-20T07:55:02.528Z,6.75
2024-02-20T07:57:33.410Z,7.25
2024-02-20T08:00:00.428Z,7.55
2024-02-20T08:02:27.393Z,8.30
2024-02-20T08:04:54.246Z,7.78
2024-02-20T08:07:21.100Z,7.90
2024-02-20T08:09:49.768Z,7.70
2024-02-20T08:12:17.403Z,8.80
2024-02-20T08:14:47.498Z,7.47
2024-02-20T08:17:15.348Z,8.63
2024-02-20T08:19:43.126Z,7.30
2024-02-20T08:22:10.149Z,7.68
2024-02-20T08:24:36.941Z,8.13
2024-02-20T08:27:04.221Z,8.80
2024-02-20T08:29:31.015Z,8.25
2024-02-20T08:31:57.817Z,8.88
2024-02-20T08:34:27.864Z,10.18
2024-02-20T08:36:54.799Z,9.63
2024-02-20T08:39:22.188Z,8.93
2024-02-20T08:41:48.991Z,12.05
2024-02-20T08:44:16.007Z,10.70
2024-02-20T08:46:43.146Z,9.90
2024-02-20T08:49:10.118Z,10.75
2024-02-20T08:51:36.850Z,10.00
2024-02-20T08:54:03.650Z,10.00
2024-02-20T08:56:30.384Z,12.65
2024-02-20T08:58:57.239Z,12.27
2024-02-20T09:01:27.260Z,11.00
2024-02-20T09:03:56.173Z,10.73
2024-02-20T09:06:23.515Z,11.40
2024-02-20T09:08:50.437Z,11.35
2024-02-20T09:11:17.216Z,14.05
2024-02-20T09:13:44.056Z,12.63
2024-02-20T09:16:11.000Z,13.85
2024-02-20T09:18:38.115Z,13.05
2024-02-20T09:21:06.301Z,12.80
2024-02-20T09:23:37.465Z,12.48
2024-02-20T09:26:07.891Z,14.25
2024-02-20T09:28:35.066Z,14.07
2024-02-20T09:31:02.264Z,15.20
2024-02-20T09:33:30.497Z,14.07
2024-02-20T09:35:57.312Z,13.95
2024-02-20T09:38:24.180Z,15.82
2024-02-20T09:40:51.149Z,14.82
2024-02-20T09:43:21.476Z,14.15
2024-02-20T09:45:51.058Z,14.38
2024-02-20T09:48:19.373Z,14.20
2024-02-20T09:50:48.939Z,13.57
2024-02-20T09:53:18.532Z,15.10
2024-02-20T09:55:49.626Z,15.85
2024-02-20T09:58:16.430Z,15.68
2024-02-20T10:00:43.344Z,15.20
2024-02-20T10:03:10.463Z,14.88
2024-02-20T10:05:46.951Z,14.43
2024-02-20T10:08:14.155Z,14.75
2024-02-20T10:10:46.063Z,15.13
2024-02-20T10:13:13.503Z,14.50
2024-02-20T10:15:40.557Z,16.45
2024-02-20T10:18:08.423Z,16.30
2024-02-20T10:20:35.383Z,17.95
2024-02-20T10:23:14.549Z,17.23
2024-02-20T10:25:41.991Z,18.38
2024-02-20T10:28:09.260Z,15.68
2024-02-20T10:30:36.679Z,16.92
2024-02-20T10:33:03.953Z,17.20
2024-02-20T10:35:31.360Z,18.17
2024-02-20T10:38:02.757Z,17.40
2024-02-20T10:40:31.389Z,17.15
2024-02-20T10:42:58.711Z,17.10
2024-02-20T10:45:27.416Z,14.55
2024-02-20T10:47:57.248Z,13.43
2024-02-20T10:50:25.194Z,13.23
2024-02-20T10:52:56.185Z,14.60
2024-02-20T10:55:31.835Z,12.85
2024-02-20T10:58:04.779Z,11.57
2024-02-20T11:00:34.736Z,12.98
2024-02-20T11:03:03.615Z,11.32
2024-02-20T11:05:32.314Z,11.48
2024-02-20T11:08:11.199Z,11.45
2024-02-20T11:10:39.931Z,10.77
2024-02-20T11:13:24.050Z,9.98
2024-02-20T11:15:52.530Z,10.07
2024-02-20T11:18:21.950Z,10.63
2024-02-20T11:21:03.548Z,10.13
2024-02-20T11:23:33.807Z,9.98
2024-02-20T11:26:11.871Z,9.02
2024-02-20T11:28:39.563Z,9.63
2024-02-20T11:31:07.226Z,9.80
2024-02-20T11:33:35.024Z,9.93
2024-02-20T11:36:02.221Z,9.77
2024-02-20T11:38:29.035Z,9.18
2024-02-20T11:40:57.187Z,8.90
2024-02-20T11:43:24.145Z,9.93
2024-02-20T11:45:58.474Z,11.75
2024-02-20T11:48:25.299Z,10.18
2024-02-20T11:50:59.120Z,9.05
2024-02-20T11:53:26.809Z,9.05
2024-02-20T11:55:54.446Z,9.93
2024-02-20T11:58:26.810Z,9.00
2024-02-20T12:01:02.682Z,9.07
2024-02-20T12:03:34.889Z,9.88
2024-02-20T12:06:06.993Z,9.50
2024-02-20T12:08:46.066Z,10.25
2024-02-20T12:11:22.196Z,9.93
2024-02-20T12:13:52.763Z,9.50
2024-02-20T12:16:26.944Z,9.27
2024-02-20T12:18:55.270Z,9.73
2024-02-20T12:21:30.074Z,9.10
2024-02-20T12:23:58.586Z,9.15
2024-02-20T12:26:26.728Z,8.93
2024-02-20T12:28:55.718Z,9.27
2024-02-20T12:31:27.824Z,10.10
2024-02-20T12:33:55.037Z,9.20
2024-02-20T12:36:22.187Z,9.57
2024-02-20T12:38:48.927Z,7.75
2024-02-20T12:41:16.600Z,8.82
2024-02-20T12:43:43.416Z,9.13
2024-02-20T12:46:10.455Z,8.75
2024-02-20T12:48:39.253Z,10.18
2024-02-20T12:51:06.107Z,9.00
2024-02-20T12:53:33.768Z,9.25
2024-02-20T12:56:01.457Z,8.70
2024-02-20T12:58:28.613Z,9.30
2024-02-20T13:00:55.469Z,10.45
2024-02-20T13:03:24.742Z,9.90
2024-02-20T13:05:51.482Z,11.73
2024-02-20T13:08:18.239Z,9.95
2024-02-20T13:10:45.252Z,9.23
2024-02-20T13:13:12.221Z,8.00
2024-02-20T13:15:39.068Z,8.02
2024-02-20T13:18:06.028Z,7.78
2024-02-20T13:20:34.136Z,7.03
2024-02-20T13:23:01.296Z,6.88
2024-02-20T13:25:28.265Z,7.93
2024-02-20T13:27:55.066Z,7.15
2024-02-20T13:30:21.831Z,6.40
2024-02-20T13:32:48.676Z,8.23
2024-02-20T13:35:19.319Z,7.75
2024-02-20T13:37:48.736Z,10.02
2024-02-20T13:40:16.333Z,7.10
2024-02-20T13:42:43.102Z,6.28
2024-02-20T13:45:10.380Z,7.05
2024-02-20T13:47:37.257Z,7.65
2024-02-20T13:50:05.961Z,7.05
2024-02-20T13:52:33.056Z,6.90
2024-02-20T13:54:59.938Z,5.95
2024-02-20T13:57:26.723Z,7.28
2024-02-20T13:59:53.473Z,6.63
2024-02-20T14:02:20.789Z,6.63
2024-02-20T14:04:48.593Z,6.03
2024-02-20T14:07:16.263Z,6.93
2024-02-20T14:09:43.112Z,6.20
2024-02-20T14:12:10.049Z,6.63
2024-02-20T14:14:37.053Z,7.25
2024-02-20T14:17:03.814Z,6.00
2024-02-20T14:19:31.279Z,6.05
2024-02-20T14:21:58.240Z,6.05
2024-02-20T14:24:25.017Z,6.40
2024-02-20T14:26:51.701Z,6.00
2024-02-20T14:29:21.496Z,5.70
2024-02-20T14:31:49.098Z,4.20
2024-02-20T14:34:16.233Z,5.53
2024-02-20T14:36:43.995Z,5.78
2024-02-20T14:39:11.728Z,4.50
2024-02-20T14:41:41.307Z,5.00
2024-02-20T14:44:08.174Z,5.20
2024-02-20T14:46:35.280Z,4.35
2024-02-20T14:49:02.214Z,5.40
2024-02-20T14:51:28.997Z,5.68
2024-02-20T14:53:55.827Z,5.18
2024-02-20T14:56:22.521Z,4.95
2024-02-20T14:58:49.316Z,5.75
2024-02-20T15:01:25.547Z,5.78
2024-02-20T15:03:52.724Z,5.70
2024-02-20T15:06:20.042Z,4.75
2024-02-20T15:08:48.211Z,4.93
2024-02-20T15:11:16.217Z,5.63
2024-02-20T15:13:43.667Z,4.82
2024-02-20T15:16:12.177Z,5.88
2024-02-20T15:18:40.187Z,5.65
2024-02-20T15:21:06.974Z,5.60
2024-02-20T15:23:33.733Z,5.38
2024-02-20T15:26:04.408Z,5.70
2024-02-20T15:28:31.295Z,5.25
2024-02-20T15:30:58.107Z,5.85
2024-02-20T15:33:24.997Z,6.28
2024-02-20T15:35:51.927Z,6.25
2024-02-20T15:38:19.082Z,6.40
2024-02-20T15:40:46.578Z,7.45
2024-02-20T15:43:18.163Z,5.45
2024-02-20T15:45:46.139Z,6.88
2024-02-20T15:48:14.630Z,7.63
2024-02-20T15:50:45.055Z,7.28
2024-02-20T15:53:20.298Z,7.43
2024-02-20T15:55:47.774Z,7.43
2024-02-20T15:58:23.329Z,6.05
2024-02-20T16:00:51.924Z,6.78
2024-02-20T16:03:19.108Z,7.18
2024-02-20T16:05:46.700Z,7.32
2024-02-20T16:08:16.613Z,8.35
2024-02-20T16:10:44.945Z,7.32
2024-02-20T16:13:11.796Z,7.13
2024-02-20T16:15:38.527Z,7.15
2024-02-20T16:18:05.498Z,6.88
2024-02-20T16:20:33.557Z,6.88
2024-02-20T16:23:02.650Z,7.85
2024-02-20T16:25:29.569Z,8.32
2024-02-20T16:27:56.383Z,6.55
2024-02-20T16:30:23.129Z,7.90
2024-02-20T16:32:49.905Z,6.93
2024-02-20T16:35:17.264Z,7.85
2024-02-20T16:37:44.306Z,8.20
2024-02-20T16:40:12.002Z,8.35
2024-02-20T16:42:38.819Z,7.25
2024-02-20T16:45:06.289Z,7.57
2024-02-20T16:47:34.553Z,7.03
2024-02-20T16:50:01.514Z,7.88
2024-02-20T16:52:28.467Z,7.82
2024-02-20T16:54:56.324Z,8.13
2024-02-20T16:57:23.347Z,6.85
2024-02-20T16:59:50.131Z,8.77
2024-02-20T17:02:17.070Z,7.05
2024-02-20T17:04:45.489Z,7.05
2024-02-20T17:07:12.600Z,7.07
2024-02-20T17:09:39.866Z,6.70
2024-02-20T17:12:07.992Z,8.40
2024-02-20T17:14:34.780Z,7.00
2024-02-20T17:17:03.102Z,6.15
2024-02-20T17:19:30.019Z,6.03
2024-02-20T17:21:56.835Z,7.07
2024-02-20T17:24:23.498Z,6.15
2024-02-20T17:26:51.977Z,5.43
2024-02-20T17:29:19.738Z,6.68
2024-02-20T17:31:46.602Z,7.95
2024-02-20T17:34:13.838Z,9.63
2024-02-20T17:36:40.796Z,10.05
2024-02-20T17:39:09.821Z,10.18
2024-02-20T17:41:38.356Z,9.77
2024-02-20T17:44:05.388Z,9.10
2024-02-20T17:46:32.129Z,9.02
2024-02-20T17:48:59.414Z,10.32
2024-02-20T17:51:26.531Z,9.95
2024-02-20T17:53:54.026Z,10.43
2024-02-20T17:56:21.342Z,9.88
2024-02-20T17:58:48.420Z,10.30
2024-02-20T18:01:19.263Z,11.93
2024-02-20T18:03:48.548Z,10.70
2024-02-20T18:06:15.269Z,11.25
2024-02-20T18:08:42.086Z,11.50
2024-02-20T18:11:09.195Z,9.07
2024-02-20T18:13:36.409Z,10.45
2024-02-20T18:16:03.380Z,10.30
2024-02-20T18:18:31.709Z,10.70
2024-02-20T18:21:00.982Z,9.52
2024-02-20T18:23:28.102Z,10.32
2024-02-20T18:25:55.107Z,10.82
2024-02-20T18:28:22.489Z,10.20
2024-02-20T18:30:49.388Z,12.10
2024-02-20T18:33:16.260Z,9.75
2024-02-20T18:35:43.241Z,11.63
2024-02-20T18:38:10.029Z,10.60
2024-02-20T18:40:36.869Z,11.63
2024-02-20T18:43:04.180Z,12.65
2024-02-20T18:45:30.902Z,12.07
2024-02-20T18:47:57.859Z,11.80
2024-02-20T18:50:24.958Z,13.57
2024-02-20T18:52:52.475Z,12.98
2024-02-20T18:55:19.441Z,12.98
2024-02-20T18:57:46.179Z,13.88
2024-02-20T19:00:14.730Z,12.98
2024-02-20T19:02:41.664Z,13.55
2024-02-20T19:05:09.225Z,13.77
2024-02-20T19:07:36.319Z,14.05
2024-02-20T19:10:04.330Z,13.60
2024-02-20T19:12:31.122Z,13.68
2024-02-20T19:14:57.972Z,14.30
2024-02-20T19:17:24.626Z,15.07
2024-02-20T19:19:51.475Z,14.75
2024-02-20T19:22:18.467Z,15.15
2024-02-20T19:24:45.419Z,16.27
2024-02-20T19:27:12.184Z,15.18
2024-02-20T19:29:38.959Z,15.50
2024-02-20T19:32:07.108Z,15.18
2024-02-20T19:34:36.494Z,15.40
2024-02-20T19:37:03.380Z,15.45
2024-02-20T19:39:30.133Z,15.63
2024-02-20T19:41:56.909Z,15.00
2024-02-20T19:44:25.648Z,15.13
2024-02-20T19:46:53.775Z,15.07
2024-02-20T19:49:21.956Z,15.10
2024-02-20T19:51:48.781Z,15.40
2024-02-20T19:54:16.273Z,16.35
2024-02-20T19:56:43.128Z,13.30
2024-02-20T19:59:18.288Z,14.75
2024-02-20T20:01:47.277Z,14.98
2024-02-20T20:04:14.579Z,14.85
2024-02-20T20:06:47.905Z,15.63
2024-02-20T20:09:15.797Z,15.68
2024-02-20T20:11:44.133Z,13.93
2024-02-20T20:14:11.750Z,15.15
2024-02-20T20:16:41.760Z,14.90
2024-02-20T20:19:09.771Z,14.35
2024-02-20T20:21:36.941Z,13.98
2024-02-20T20:24:13.650Z,13.90
2024-02-20T20:26:45.357Z,14.38
2024-02-20T20:29:12.212Z,15.15
2024-02-20T20:31:40.635Z,16.15
2024-02-20T20:34:07.788Z,15.35
2024-02-20T20:36:36.641Z,15.77
2024-02-20T20:39:05.701Z,15.43
2024-02-20T20:41:32.596Z,16.85
2024-02-20T20:44:00.925Z,17.02
2024-02-20T20:46:28.029Z,17.17
2024-02-20T20:48:54.838Z,17.55
2024-02-20T20:51:21.680Z,16.73
2024-02-20T20:53:48.491Z,17.98
2024-02-20T20:56:15.341Z,17.02
2024-02-20T20:58:42.477Z,17.52
2024-02-20T21:01:09.560Z,18.13
2024-02-20T21:03:36.504Z,17.48
2024-02-20T21:06:06.487Z,17.75
2024-02-20T21:08:33.315Z,18.65
2024-02-20T21:11:00.323Z,18.48
2024-02-20T21:13:27.404Z,18.48
2024-02-20T21:15:56.672Z,18.33
2024-02-20T21:18:23.522Z,17.58
2024-02-20T21:20:50.580Z,17.42
2024-02-20T21:23:17.958Z,19.63
2024-02-20T21:25:48.809Z,18.25
2024-02-20T21:28:15.695Z,18.35
2024-02-20T21:30:45.870Z,17.92
2024-02-20T21:33:13.277Z,17.42
2024-02-20T21:35:40.361Z,19.60
2024-02-20T21:38:07.890Z,17.67
2024-02-20T21:40:36.156Z,18.38
2024-02-20T21:43:03.288Z,19.52
2024-02-20T21:45:30.063Z,18.27
2024-02-20T21:47:56.880Z,17.35
2024-02-20T21:50:23.815Z,17.05
2024-02-20T21:52:52.327Z,17.55
2024-02-20T21:55:19.772Z,18.17
2024-02-20T21:57:46.675Z,18.67
2024-02-20T22:00:14.091Z,17.55
2024-02-20T22:02:40.969Z,17.27
2024-02-20T22:05:08.256Z,17.77
2024-02-20T22:07:35.141Z,16.70
2024-02-20T22:10:02.043Z,17.02
2024-02-20T22:12:28.755Z,17.25
2024-02-20T22:14:55.539Z,17.42
2024-02-20T22:17:22.501Z,16.80
2024-02-20T22:19:49.399Z,18.27
2024-02-20T22:22:16.582Z,17.92
2024-02-20T22:24:43.392Z,17.85
2024-02-20T22:27:10.854Z,18.00
2024-02-20T22:29:38.300Z,17.15
2024-02-20T22:32:05.383Z,18.80
2024-02-20T22:34:32.326Z,17.42
2024-02-20T22:37:00.017Z,18.65
2024-02-20T22:39:26.936Z,18.88
2024-02-20T22:41:53.694Z,20.15
2024-02-20T22:44:20.826Z,18.65
2024-02-20T22:46:49.299Z,18.13
2024-02-20T22:49:16.260Z,18.52
2024-02-20T22:51:43.088Z,17.50
2024-02-20T22:54:09.829Z,18.20
2024-02-20T22:56:36.595Z,18.85
2024-02-20T22:59:03.416Z,19.27
2024-02-20T23:01:31.483Z,19.73
2024-02-20T23:03:58.307Z,19.92
2024-02-20T23:06:25.289Z,19.45
2024-02-20T23:08:52.203Z,19.17
2024-02-20T23:11:19.203Z,19.65
2024-02-20T23:13:46.011Z,19.05
2024-02-20T23:16:12.897Z,17.85
2024-02-20T23:18:39.826Z,18.95
2024-02-20T23:21:06.616Z,19.90
2024-02-20T23:23:33.608Z,20.63
2024-02-20T23:26:00.443Z,19.45
2024-02-20T23:28:27.266Z,21.45
2024-02-20T23:30:54.116Z,19.60
2024-02-20T23:33:21.220Z,19.42
2024-02-20T23:35:48.001Z,19.15
2024-02-20T23:38:14.760Z,19.38
2024-02-20T23:40:41.456Z,19.10
2024-02-20T23:43:08.157Z,19.90
2024-02-20T23:45:34.831Z,19.42
2024-02-20T23:48:01.668Z,18.45
2024-02-20T23:50:28.465Z,19.75
2024-02-20T23:52:55.652Z,21.25
2024-02-20T23:55:23.406Z,20.27
2024-02-20T23:57:50.253Z,19.92
